Time;durP1;ratioP1;P1;durP2;ratioP2;P2;SDS_P1;SDS_P2;PMS_P1;PMS_P2;Temp;Humidity;BMP_temperature;BMP_pressure;BME280_temperature;BME280_humidity;BME280_pressure;Samples;Min_cycle;Max_cycle;Signal;HPM_P1;HPM_P2
2021/05/20 00:01:59;;;;;;;5.72;2.33;;;;;;;34.51;19.00;93645.97;5014064;28;20054;-63
2021/05/20 00:04:26;;;;;;;4.57;1.83;;;;;;;34.39;19.44;93652.34;5014287;28;20457;-65
2021/05/20 00:06:53;;;;;;;5.45;1.85;;;;;;;35.00;18.90;93642.94;5013668;28;20060;-65
2021/05/20 00:09:20;;;;;;;4.50;1.75;;;;;;;34.54;18.97;93651.25;5014599;28;20052;-65
2021/05/20 00:11:47;;;;;;;5.18;2.08;;;;;;;35.11;18.51;93664.16;5014585;28;20053;-58
2021/05/20 00:14:16;;;;;;;3.67;1.65;;;;;;;34.11;19.40;93657.81;5013784;28;20045;-66
2021/05/20 00:16:43;;;;;;;3.63;1.75;;;;;;;34.30;19.30;93663.94;5008777;28;20053;-64
2021/05/20 00:19:11;;;;;;;6.63;2.20;;;;;;;34.23;19.35;93654.16;5016699;28;20057;-64
2021/05/20 00:21:38;;;;;;;3.00;1.60;;;;;;;34.10;19.67;93653.59;5033571;28;20080;-65
2021/05/20 00:24:06;;;;;;;3.80;1.70;;;;;;;34.58;19.43;93651.06;5033844;28;20056;-65
2021/05/20 00:26:34;;;;;;;6.57;1.80;;;;;;;34.33;19.34;93644.03;5016027;28;20056;-65
2021/05/20 00:29:05;;;;;;;4.18;1.80;;;;;;;34.22;19.78;93635.63;5033326;28;20053;-66
2021/05/20 00:31:33;;;;;;;5.75;1.50;;;;;;;34.16;20.03;93640.91;5033453;28;20041;-65
2021/05/20 00:34:07;;;;;;;3.53;1.42;;;;;;;33.75;20.49;93641.53;5033375;28;20045;-66
2021/05/20 00:36:34;;;;;;;6.05;2.10;;;;;;;34.29;19.46;93633.34;5033504;28;20049;-66
2021/05/20 00:39:02;;;;;;;5.05;1.98;;;;;;;33.53;20.06;93639.72;5033348;28;20049;-65
2021/05/20 00:41:30;;;;;;;4.93;2.20;;;;;;;34.39;19.60;93627.94;5033466;28;20045;-66
2021/05/20 00:43:57;;;;;;;6.55;1.83;;;;;;;34.18;19.90;93624.19;5034190;28;20049;-65
2021/05/20 00:46:24;;;;;;;4.65;1.83;;;;;;;34.36;19.39;93629.63;5026992;28;20350;-65
2021/05/20 00:48:51;;;;;;;5.90;2.10;;;;;;;33.55;20.43;93634.59;5014366;28;20061;-66
2021/05/20 00:51:19;;;;;;;4.15;1.83;;;;;;;34.01;20.12;93631.91;5014015;28;20042;-65
2021/05/20 00:53:56;;;;;;;5.18;1.60;;;;;;;34.08;19.85;93631.56;5017224;28;20057;-64
2021/05/20 00:56:56;;;;;;;3.47;1.60;;;;;;;33.47;20.96;93633.38;5015239;28;20053;-65
2021/05/20 00:59:25;;;;;;;5.85;1.70;;;;;;;33.66;20.72;93640.34;5018329;28;20364;-66
2021/05/20 01:01:52;;;;;;;6.40;1.80;;;;;;;33.43;20.83;93627.38;5056587;28;20064;-59
2021/05/20 01:04:19;;;;;;;4.28;1.65;;;;;;;33.61;20.44;93627.38;5056728;28;20053;-65
2021/05/20 01:06:46;;;;;;;3.75;1.42;;;;;;;33.74;20.44;93621.81;5057668;28;20378;-65
2021/05/20 01:09:14;;;;;;;6.07;1.95;;;;;;;34.10;20.17;93612.91;5057637;28;20509;-65
2021/05/20 01:11:41;;;;;;;6.93;1.77;;;;;;;33.98;20.34;93611.13;5057497;28;20068;-65
2021/05/20 01:14:11;;;;;;;3.35;1.80;;;;;;;34.16;19.97;93611.09;5057438;28;20037;-66
2021/05/20 01:16:38;;;;;;;3.65;1.95;;;;;;;34.01;20.07;93615.63;5043111;28;20057;-66
2021/05/20 01:19:06;;;;;;;4.78;1.92;;;;;;;33.38;20.62;93609.00;5020221;28;20049;-66
2021/05/20 01:21:34;;;;;;;3.53;2.10;;;;;;;33.84;20.21;93609.03;5037218;28;20060;-65
2021/05/20 01:24:02;;;;;;;5.68;2.30;;;;;;;33.77;20.26;93612.00;5037232;28;20380;-66
2021/05/20 01:26:30;;;;;;;5.20;1.90;;;;;;;33.29;20.36;93606.25;5019612;28;20060;-66
2021/05/20 01:28:57;;;;;;;6.85;1.90;;;;;;;33.41;20.51;93597.28;5037359;28;20452;-66
2021/05/20 01:31:25;;;;;;;5.43;1.75;;;;;;;33.09;20.99;93599.31;5037129;28;20041;-62
2021/05/20 01:33:52;;;;;;;6.32;2.00;;;;;;;33.03;20.99;93590.25;5037280;28;20778;-65
2021/05/20 01:36:26;;;;;;;5.35;1.90;;;;;;;32.56;21.19;93589.81;5036601;28;20053;-65
2021/05/20 01:38:57;;;;;;;4.32;1.50;;;;;;;33.66;19.70;93580.72;5037304;28;20052;-65
2021/05/20 01:41:24;;;;;;;6.63;1.60;;;;;;;33.42;20.02;93577.09;5031327;28;20057;-55
2021/05/20 01:43:52;;;;;;;3.30;1.42;;;;;;;32.74;20.68;93573.63;5017497;28;20046;-66
2021/05/20 01:46:19;;;;;;;5.00;2.05;;;;;;;33.14;20.22;93562.03;5044537;28;20456;-66
2021/05/20 01:48:48;;;;;;;5.10;1.75;;;;;;;32.97;20.31;93565.00;5057077;28;20051;-60
2021/05/20 01:51:17;;;;;;;3.60;1.85;;;;;;;33.01;20.31;93554.03;5056770;28;20047;-66
2021/05/20 01:53:47;;;;;;;6.10;1.80;;;;;;;32.62;20.64;93553.63;5056793;28;20052;-66
2021/05/20 01:56:16;;;;;;;3.65;1.35;;;;;;;33.05;20.24;93554.63;5056171;28;20045;-65
2021/05/20 01:58:44;;;;;;;3.60;1.40;;;;;;;33.52;19.95;93543.38;5038274;28;20053;-66
2021/05/20 02:01:11;;;;;;;3.63;1.45;;;;;;;32.53;20.89;93550.13;5036187;28;20045;-66
2021/05/20 02:03:39;;;;;;;3.13;1.40;;;;;;;32.84;19.88;93539.28;5036458;28;20465;-66
2021/05/20 02:06:07;;;;;;;4.30;1.50;;;;;;;33.32;19.91;93545.81;5050783;28;20056;-66
2021/05/20 02:08:35;;;;;;;3.45;1.50;;;;;;;32.92;20.15;93546.66;5019330;28;20467;-61
2021/05/20 02:11:07;;;;;;;3.22;1.40;;;;;;;32.89;20.31;93547.53;5036322;28;20053;-65
2021/05/20 02:13:34;;;;;;;3.33;1.48;;;;;;;33.71;19.41;93544.88;5036596;28;20048;-60
2021/05/20 02:16:02;;;;;;;3.60;1.20;;;;;;;33.31;19.94;93549.69;5025516;28;20045;-67
2021/05/20 02:18:29;;;;;;;2.90;1.45;;;;;;;32.63;20.91;93546.25;5055945;28;20059;-65
2021/05/20 02:20:56;;;;;;;3.20;1.58;;;;;;;33.06;20.36;93540.66;5055134;28;20048;-56
2021/05/20 02:23:23;;;;;;;2.58;1.23;;;;;;;32.65;20.27;93543.84;5055921;28;20049;-57
2021/05/20 02:25:50;;;;;;;4.95;1.33;;;;;;;33.07;19.92;93541.41;5055251;28;20372;-55
2021/05/20 02:28:18;;;;;;;3.25;1.35;;;;;;;32.43;20.67;93538.53;5040872;28;20045;-58
2021/05/20 02:30:45;;;;;;;3.75;1.52;;;;;;;31.92;21.28;93532.72;5035175;28;20052;-66
2021/05/20 02:33:12;;;;;;;2.65;1.50;;;;;;;32.90;20.57;93527.41;5035629;28;20452;-65
2021/05/20 02:35:40;;;;;;;3.70;1.50;;;;;;;32.19;21.27;93524.72;5035879;28;20045;-64
2021/05/20 02:38:07;;;;;;;3.55;1.40;;;;;;;32.73;20.81;93513.34;5036569;28;20060;-66
2021/05/20 02:40:35;;;;;;;2.75;1.45;;;;;;;32.57;20.63;93531.81;5036153;28;20049;-66
2021/05/20 02:43:03;;;;;;;3.15;1.63;;;;;;;32.22;21.18;93526.53;5036142;28;20057;-63
2021/05/20 02:45:30;;;;;;;3.30;1.35;;;;;;;32.07;21.05;93533.69;5035032;28;20045;-56
2021/05/20 02:47:58;;;;;;;5.20;1.75;;;;;;;32.18;21.35;93534.78;5036078;28;20065;-64
2021/05/20 02:50:26;;;;;;;3.60;1.48;;;;;;;31.93;21.59;93529.56;5036294;28;20046;-61
2021/05/20 02:52:53;;;;;;;2.95;1.35;;;;;;;32.49;21.00;93536.72;5027886;28;20053;-68
2021/05/20 02:55:22;;;;;;;5.18;1.77;;;;;;;32.03;21.54;93527.69;5012205;28;20049;-66
2021/05/20 02:57:53;;;;;;;4.80;1.40;;;;;;;31.49;22.33;93532.28;5045071;28;20377;-63
2021/05/20 03:00:21;;;;;;;4.05;1.42;;;;;;;31.56;22.08;93529.34;5035744;28;20059;-65
2021/05/20 03:03:01;;;;;;;3.67;1.58;;;;;;;31.33;22.42;93531.72;5018662;28;20448;-63
2021/05/20 03:05:32;;;;;;;3.00;1.65;;;;;;;31.61;22.40;93538.81;5035294;28;20049;-61
2021/05/20 03:08:24;;;;;;;3.25;1.40;;;;;;;32.10;21.61;93540.91;5035837;28;20045;-66
2021/05/20 03:10:52;;;;;;;3.17;1.30;;;;;;;31.68;22.15;93546.66;5035633;28;20476;-65
2021/05/20 03:13:19;;;;;;;3.40;1.70;;;;;;;30.73;23.34;93534.47;5035649;28;20078;-63
2021/05/20 03:15:46;;;;;;;4.38;1.60;;;;;;;31.32;22.38;93546.41;5039200;28;20045;-67
2021/05/20 03:18:13;;;;;;;4.28;1.73;;;;;;;30.53;23.49;93557.00;5049647;28;20053;-59
2021/05/20 03:20:43;;;;;;;3.80;1.90;;;;;;;30.93;22.94;93559.22;5020687;28;20060;-67
2021/05/20 03:23:33;;;;;;;4.05;1.67;;;;;;;30.99;23.18;93568.28;4993985;28;20373;-66
2021/05/20 03:26:06;;;;;;;3.15;1.67;;;;;;;31.56;22.41;93569.84;5003018;28;20194;-66
2021/05/20 03:28:37;;;;;;;5.72;2.00;;;;;;;30.78;23.66;93574.38;4996674;28;20046;-65
2021/05/20 03:31:04;;;;;;;3.95;1.50;;;;;;;30.89;23.14;93590.97;4993234;28;20050;-66
2021/05/20 03:33:31;;;;;;;4.43;1.77;;;;;;;31.45;22.36;93582.19;4993811;28;20042;-64
2021/05/20 03:35:58;;;;;;;2.67;1.55;;;;;;;31.51;22.18;93591.25;4993007;28;20050;-66
2021/05/20 03:38:25;;;;;;;4.75;1.63;;;;;;;30.70;23.22;93592.69;4993690;28;20142;-57
2021/05/20 03:40:53;;;;;;;2.83;1.70;;;;;;;31.24;22.87;93597.19;4992436;28;20056;-68
2021/05/20 03:43:20;;;;;;;4.53;1.88;;;;;;;31.81;22.07;93609.53;4993701;28;20050;-66
2021/05/20 03:45:47;;;;;;;3.28;1.75;;;;;;;31.14;23.22;93607.09;4992311;28;20042;-67
2021/05/20 03:48:14;;;;;;;3.05;2.10;;;;;;;31.24;23.09;93611.44;4993324;28;20070;-66
2021/05/20 03:50:41;;;;;;;2.78;1.30;;;;;;;31.94;22.05;93606.00;4992912;28;20046;-64
2021/05/20 03:53:08;;;;;;;4.65;1.30;;;;;;;30.86;23.04;93608.03;4993343;28;20045;-66
2021/05/20 03:55:36;;;;;;;2.63;1.02;;;;;;;30.98;23.02;93615.34;5029553;28;20052;-66
2021/05/20 03:58:03;;;;;;;3.67;1.40;;;;;;;31.31;22.52;93609.69;5041760;28;20371;-67
2021/05/20 04:00:30;;;;;;;1.88;1.08;;;;;;;32.15;21.64;93616.03;5036717;28;20368;-67
2021/05/20 04:02:57;;;;;;;1.85;1.00;;;;;;;32.11;21.28;93613.47;5054577;28;20049;-66
2021/05/20 04:05:24;;;;;;;3.05;1.30;;;;;;;33.14;19.95;93616.16;5025276;28;20037;-67
2021/05/20 04:07:52;;;;;;;2.17;1.20;;;;;;;31.40;21.82;93607.06;5034192;28;20060;-67
2021/05/20 04:10:25;;;;;;;1.55;0.90;;;;;;;31.51;21.82;93615.56;5033705;28;20048;-67
2021/05/20 04:12:52;;;;;;;2.38;0.98;;;;;;;32.48;20.61;93627.19;5047069;28;20049;-67
2021/05/20 04:15:19;;;;;;;2.72;1.10;;;;;;;32.66;19.94;93626.53;5029763;28;20056;-67
2021/05/20 04:17:46;;;;;;;2.85;0.82;;;;;;;32.39;20.58;93630.63;5034532;28;20060;-65
2021/05/20 04:20:14;;;;;;;2.63;0.85;;;;;;;32.69;20.13;93617.50;5034524;28;20041;-59
2021/05/20 04:22:41;;;;;;;1.98;0.90;;;;;;;32.70;19.98;93619.03;5038672;28;20057;-60
2021/05/20 04:25:09;;;;;;;2.80;1.10;;;;;;;31.63;20.98;93609.34;5049431;28;20049;-57
2021/05/20 04:27:36;;;;;;;2.67;0.80;;;;;;;32.52;20.63;93611.56;5033728;28;20371;-58
2021/05/20 04:30:04;;;;;;;2.00;1.17;;;;;;;32.17;21.00;93621.75;5034481;28;20061;-57
2021/05/20 04:32:31;;;;;;;2.80;1.02;;;;;;;31.08;22.59;93619.66;5017622;28;20046;-58
2021/05/20 04:34:58;;;;;;;2.50;0.95;;;;;;;32.11;21.54;93626.22;5016225;28;20049;-55
2021/05/20 04:37:25;;;;;;;2.15;1.10;;;;;;;31.96;21.53;93630.63;5016032;28;20048;-56
2021/05/20 04:39:53;;;;;;;1.90;1.08;;;;;;;31.33;22.50;93628.91;5015204;28;20057;-57
2021/05/20 04:42:22;;;;;;;4.10;1.30;;;;;;;30.94;23.30;93633.56;5027511;28;20049;-61
2021/05/20 04:44:52;;;;;;;2.83;1.27;;;;;;;32.42;21.78;93642.50;5015079;28;20058;-62
2021/05/20 04:47:19;;;;;;;1.20;0.80;;;;;;;32.26;21.44;93648.84;5033099;28;20751;-54
2021/05/20 04:49:46;;;;;;;1.73;0.85;;;;;;;32.02;22.46;93640.44;5014209;28;20060;-56
2021/05/20 04:52:13;;;;;;;1.75;0.90;;;;;;;31.34;22.65;93646.63;5029151;28;20333;-54
2021/05/20 04:54:40;;;;;;;1.88;0.88;;;;;;;31.03;22.46;93647.19;5025324;28;20050;-58
2021/05/20 04:57:07;;;;;;;3.10;1.00;;;;;;;31.24;22.14;93638.44;5032591;28;20372;-56
2021/05/20 04:59:34;;;;;;;1.23;0.70;;;;;;;32.02;21.93;93628.88;5033998;28;20056;-60
2021/05/20 05:02:02;;;;;;;2.03;0.90;;;;;;;32.09;21.93;93625.91;5033725;28;20049;-55
2021/05/20 05:04:29;;;;;;;1.63;0.70;;;;;;;31.98;22.39;93636.34;5016576;28;20049;-61
2021/05/20 05:06:56;;;;;;;1.95;0.80;;;;;;;32.17;22.11;93638.72;5032438;28;20053;-58
2021/05/20 05:09:23;;;;;;;2.72;1.02;;;;;;;31.54;22.14;93652.50;5033849;28;20045;-53
2021/05/20 05:11:50;;;;;;;1.70;0.93;;;;;;;32.17;21.48;93656.91;5034156;28;20049;-55
2021/05/20 05:14:18;;;;;;;2.17;1.20;;;;;;;31.85;22.07;93658.78;5033958;28;20399;-56
2021/05/20 05:16:45;;;;;;;2.25;1.15;;;;;;;31.81;22.27;93652.75;5033051;28;20057;-58
2021/05/20 05:19:12;;;;;;;3.05;1.30;;;;;;;31.68;22.22;93652.00;5048013;28;20064;-61
2021/05/20 05:21:39;;;;;;;3.50;1.30;;;;;;;31.23;22.30;93652.38;5053999;28;20048;-58
2021/05/20 05:24:07;;;;;;;1.55;0.82;;;;;;;31.08;22.52;93657.44;5052781;28;20363;-56
2021/05/20 05:26:34;;;;;;;1.67;0.93;;;;;;;31.10;22.53;93649.66;5052880;28;20055;-61
2021/05/20 05:29:01;;;;;;;1.67;0.80;;;;;;;31.12;21.78;93657.31;5031580;28;20376;-64
2021/05/20 05:31:29;;;;;;;1.42;0.57;;;;;;;31.66;21.32;93662.50;5034100;28;20053;-56
2021/05/20 05:33:56;;;;;;;1.23;0.55;;;;;;;30.62;22.60;93664.25;5033589;28;20041;-58
2021/05/20 05:36:24;;;;;;;1.00;0.70;;;;;;;30.56;22.23;93655.91;5033287;28;20053;-58
2021/05/20 05:38:52;;;;;;;1.02;0.50;;;;;;;30.54;22.41;93662.91;5033657;28;20368;-58
2021/05/20 05:41:19;;;;;;;0.98;0.52;;;;;;;30.63;22.44;93669.19;5037533;28;20057;-58
2021/05/20 05:43:46;;;;;;;1.20;0.60;;;;;;;31.22;21.51;93673.19;5037470;28;20052;-53
2021/05/20 05:46:13;;;;;;;1.13;0.65;;;;;;;30.35;22.48;93680.78;5035983;28;20392;-58
2021/05/20 05:48:40;;;;;;;0.73;0.50;;;;;;;30.27;22.40;93685.63;5031537;28;20058;-59
2021/05/20 05:51:12;;;;;;;1.17;0.50;;;;;;;30.90;21.23;93697.69;5017398;28;20053;-57
2021/05/20 05:53:39;;;;;;;1.37;0.50;;;;;;;30.52;21.45;93703.78;5017640;28;20357;-59
2021/05/20 05:56:06;;;;;;;1.45;0.52;;;;;;;31.00;21.13;93704.72;5025953;28;20311;-65
2021/05/20 05:58:33;;;;;;;1.52;0.60;;;;;;;30.76;21.36;93719.72;5036423;28;20364;-60
2021/05/20 06:01:01;;;;;;;0.70;0.40;;;;;;;29.76;21.85;93727.78;5046175;28;20045;-58
2021/05/20 06:03:29;;;;;;;1.10;0.60;;;;;;;30.14;21.88;93751.44;5036848;28;20056;-59
2021/05/20 06:05:56;;;;;;;0.93;0.50;;;;;;;29.59;22.60;93766.66;5036539;28;20064;-57
2021/05/20 06:08:23;;;;;;;1.40;0.50;;;;;;;29.51;22.59;93770.72;5036236;28;20041;-52
2021/05/20 06:10:50;;;;;;;1.08;0.40;;;;;;;29.25;22.77;93762.44;5029801;28;20046;-54
2021/05/20 06:13:18;;;;;;;0.82;0.40;;;;;;;29.37;22.63;93759.06;5016188;28;20436;-58
2021/05/20 06:15:45;;;;;;;1.42;0.52;;;;;;;29.60;22.25;93765.47;5041825;28;20055;-58
2021/05/20 06:18:12;;;;;;;3.25;0.55;;;;;;;29.90;22.18;93750.88;5038769;28;20056;-53
2021/05/20 06:20:39;;;;;;;1.52;0.50;;;;;;;30.74;21.06;93738.28;5053654;28;20053;-58
2021/05/20 06:23:08;;;;;;;1.27;0.43;;;;;;;29.93;21.85;93737.34;5016749;28;20057;-58
2021/05/20 06:25:35;;;;;;;2.00;0.40;;;;;;;30.37;21.74;93743.13;5020279;28;20478;-55
2021/05/20 06:28:08;;;;;;;1.05;0.60;;;;;;;29.71;22.37;93749.84;5040717;28;20068;-58
2021/05/20 06:30:36;;;;;;;2.28;0.60;;;;;;;29.99;21.51;93741.03;5056628;28;20044;-59
2021/05/20 06:33:03;;;;;;;2.05;0.60;;;;;;;29.61;22.07;93740.81;5056405;28;20041;-60
2021/05/20 06:35:31;;;;;;;0.85;0.50;;;;;;;28.54;23.78;93740.47;5047629;28;20050;-58
2021/05/20 06:37:58;;;;;;;0.70;0.40;;;;;;;29.67;22.28;93735.72;5036054;28;20049;-61
2021/05/20 06:40:25;;;;;;;0.77;0.40;;;;;;;29.86;21.67;93755.59;5036687;28;20053;-59
2021/05/20 06:42:52;;;;;;;1.17;0.50;;;;;;;28.58;23.29;93743.09;5035717;28;20057;-59
2021/05/20 06:45:19;;;;;;;0.50;0.30;;;;;;;29.58;22.02;93757.84;5035331;28;20064;-58
2021/05/20 06:47:51;;;;;;;0.75;0.30;;;;;;;29.76;21.73;93752.00;5035866;28;20057;-60
2021/05/20 06:50:18;;;;;;;0.60;0.40;;;;;;;30.06;21.71;93765.13;5036161;28;20045;-55
2021/05/20 06:52:45;;;;;;;0.75;0.40;;;;;;;29.73;22.02;93758.25;5036268;28;20049;-53
2021/05/20 06:55:12;;;;;;;1.05;0.50;;;;;;;29.30;22.32;93743.09;5034914;28;20060;-56
2021/05/20 07:00:25;;;;;;;0.93;0.40;;;;;;;29.60;21.88;93744.69;5035426;28;20056;-57
2021/05/20 07:02:52;;;;;;;0.70;0.40;;;;;;;29.60;21.99;93752.78;5035747;28;20076;-59
2021/05/20 07:05:19;;;;;;;0.77;0.40;;;;;;;29.71;21.75;93749.84;5035631;28;20045;-53
2021/05/20 07:07:47;;;;;;;1.70;0.40;;;;;;;30.23;21.39;93741.59;5035816;28;20121;-53
2021/05/20 07:10:14;;;;;;;0.75;0.40;;;;;;;29.37;22.21;93747.53;5036030;28;20060;-56
2021/05/20 07:12:41;;;;;;;1.35;0.50;;;;;;;29.73;21.93;93758.25;5035704;28;20067;-57
2021/05/20 07:15:09;;;;;;;0.50;0.30;;;;;;;30.29;21.03;93755.28;5035173;28;20056;-63
2021/05/20 07:17:36;;;;;;;0.70;0.40;;;;;;;29.79;21.38;93756.56;5035096;28;20045;-54
2021/05/20 07:20:05;;;;;;;0.98;0.40;;;;;;;30.18;20.96;93754.81;5020155;28;20054;-56
2021/05/20 07:22:32;;;;;;;3.90;2.65;;;;;;;29.97;21.79;93762.25;5026973;28;20053;-60
2021/05/20 07:25:02;;;;;;;2.42;1.42;;;;;;;29.58;22.30;93763.22;5034839;28;20064;-57
2021/05/20 07:27:33;;;;;;;2.78;1.63;;;;;;;31.14;20.51;93763.66;5034526;28;20045;-58
2021/05/20 07:30:01;;;;;;;2.97;2.33;;;;;;;30.92;20.94;93778.97;5035548;28;20049;-56
2021/05/20 07:32:30;;;;;;;1.55;1.00;;;;;;;29.86;22.13;93772.53;5034302;28;20045;-57
2021/05/20 07:34:57;;;;;;;1.60;0.98;;;;;;;30.40;21.53;93766.53;5035120;28;20049;-58
2021/05/20 07:37:24;;;;;;;1.63;1.00;;;;;;;29.99;21.85;93764.53;5035111;28;20053;-56
2021/05/20 07:39:52;;;;;;;1.40;0.70;;;;;;;30.26;21.13;93766.94;5035439;28;20049;-54
2021/05/20 07:42:19;;;;;;;1.40;0.85;;;;;;;30.86;20.70;93767.19;5034812;28;20049;-56
2021/05/20 07:44:47;;;;;;;2.05;1.50;;;;;;;29.69;21.90;93760.28;5035212;28;20061;-56
2021/05/20 07:47:14;;;;;;;1.20;0.70;;;;;;;30.13;21.07;93779.59;5040627;28;20069;-56
2021/05/20 07:49:41;;;;;;;1.45;0.50;;;;;;;30.15;20.64;93777.22;5055350;28;20049;-60
2021/05/20 07:52:08;;;;;;;1.40;0.50;;;;;;;29.70;21.52;93784.09;5054527;28;20041;-59
2021/05/20 07:54:35;;;;;;;0.80;0.43;;;;;;;29.67;21.41;93781.50;5055001;28;20317;-59
2021/05/20 07:57:03;;;;;;;0.77;0.45;;;;;;;28.72;22.45;93791.22;5050109;28;20060;-55
2021/05/20 07:59:30;;;;;;;0.85;0.40;;;;;;;29.81;21.35;93783.06;5017906;28;20056;-57
2021/05/20 08:02:05;;;;;;;2.50;0.60;;;;;;;30.89;19.90;93783.28;5019507;28;20060;-59
2021/05/20 08:04:33;;;;;;;0.75;0.40;;;;;;;30.25;20.38;93795.06;5022836;28;20049;-63
2021/05/20 08:07:09;;;;;;;1.27;0.70;;;;;;;30.07;20.79;93798.97;5027595;28;20050;-59
2021/05/20 08:09:37;;;;;;;2.97;0.60;;;;;;;30.58;19.77;93804.56;5034855;28;20052;-56
2021/05/20 08:12:07;;;;;;;0.98;0.30;;;;;;;29.99;20.65;93808.41;5034370;28;20049;-56
2021/05/20 08:14:34;;;;;;;0.60;0.32;;;;;;;29.88;20.60;93812.50;5034772;28;20041;-57
2021/05/20 08:17:02;;;;;;;2.25;0.30;;;;;;;31.11;18.82;93807.72;5033639;28;20431;-59
2021/05/20 08:19:29;;;;;;;2.38;0.35;;;;;;;30.23;19.77;93821.69;5035108;28;20049;-61
2021/05/20 08:21:56;;;;;;;1.35;0.70;;;;;;;30.54;19.50;93812.00;5034082;28;20048;-55
2021/05/20 08:24:24;;;;;;;3.78;2.65;;;;;;;30.74;19.24;93813.81;5034295;28;20053;-55
2021/05/20 08:26:51;;;;;;;3.38;2.13;;;;;;;31.74;18.64;93806.22;5033826;28;20053;-53
2021/05/20 08:29:18;;;;;;;1.70;1.30;;;;;;;30.56;19.69;93815.03;5034474;28;20052;-55
2021/05/20 08:31:45;;;;;;;1.10;0.60;;;;;;;30.91;19.22;93807.13;5033854;28;20045;-55
2021/05/20 08:34:12;;;;;;;0.65;0.32;;;;;;;30.64;19.64;93813.66;5019008;28;20453;-58
2021/05/20 08:36:41;;;;;;;0.98;0.30;;;;;;;31.51;18.63;93807.31;5023126;28;20045;-55
2021/05/20 08:39:08;;;;;;;0.70;0.30;;;;;;;31.39;18.34;93827.72;5034329;28;20064;-58
2021/05/20 08:41:36;;;;;;;0.50;0.28;;;;;;;30.78;18.98;93827.94;5034134;28;20045;-55
2021/05/20 08:44:14;;;;;;;0.50;0.20;;;;;;;30.74;18.87;93824.59;5034056;28;20040;-60
2021/05/20 08:46:41;;;;;;;0.75;0.40;;;;;;;31.12;18.96;93822.72;5033162;28;20449;-58
2021/05/20 08:49:14;;;;;;;1.73;0.40;;;;;;;31.03;18.93;93832.66;5034652;28;20049;-57
2021/05/20 08:51:47;;;;;;;1.30;0.57;;;;;;;31.48;18.09;93824.38;5035113;28;20049;-55
2021/05/20 08:54:15;;;;;;;1.27;0.40;;;;;;;31.38;18.81;93822.75;5026736;28;20053;-66
2021/05/20 08:56:46;;;;;;;1.10;0.52;;;;;;;31.13;18.90;93821.53;5015634;28;20048;-56
2021/05/20 08:59:14;;;;;;;1.25;0.52;;;;;;;31.77;18.79;93835.09;5033791;28;20049;-55
2021/05/20 09:01:45;;;;;;;0.55;0.40;;;;;;;31.02;19.12;93831.88;5022859;28;20050;-56
2021/05/20 09:04:12;;;;;;;1.60;0.40;;;;;;;31.71;17.52;93832.16;5019793;28;20050;-53
2021/05/20 09:06:43;;;;;;;1.73;0.40;;;;;;;31.21;19.86;93822.84;5015791;28;20475;-53
2021/05/20 09:09:16;;;;;;;1.20;0.32;;;;;;;31.77;18.69;93814.25;5014301;28;20053;-53
2021/05/20 09:11:56;;;;;;;18.60;14.27;;;;;;;32.29;18.48;93821.06;5015237;28;20064;-51
2021/05/20 09:14:34;;;;;;;10.02;8.40;;;;;;;32.31;18.41;93813.25;5019800;28;20045;-50
2021/05/20 09:17:12;;;;;;;140.27;83.03;;;;;;;33.44;17.13;93815.78;5025506;28;20046;-52
2021/05/20 09:19:47;;;;;;;196.65;162.15;;;;;;;34.01;16.42;93827.09;5018084;28;20054;-52
2021/05/20 09:22:14;;;;;;;49.20;35.35;;;;;;;34.03;16.50;93816.56;5005310;28;20060;-58
2021/05/20 09:24:49;;;;;;;15.60;11.07;;;;;;;33.47;17.34;93819.56;5037425;28;20037;-62
2021/05/20 09:27:24;;;;;;;5.32;3.80;;;;;;;33.71;16.51;93813.16;5019958;28;20499;-56
2021/05/20 09:30:08;;;;;;;3.42;2.60;;;;;;;33.07;17.26;93818.31;5021740;28;20050;-52
2021/05/20 09:32:42;;;;;;;2.20;1.10;;;;;;;33.45;16.56;93820.00;5029367;28;20049;-54
2021/05/20 09:35:10;;;;;;;2.80;0.90;;;;;;;33.32;16.38;93816.66;5017725;28;20042;-57
2021/05/20 09:37:52;;;;;;;2.03;0.60;;;;;;;32.87;16.85;93819.84;5031692;28;20052;-55
2021/05/20 09:40:23;;;;;;;4.05;0.82;;;;;;;33.76;16.01;93817.22;5037739;28;20053;-49
2021/05/20 09:42:50;;;;;;;1.23;0.50;;;;;;;32.97;16.86;93811.31;5037061;28;20345;-60
2021/05/20 09:45:25;;;;;;;1.25;0.68;;;;;;;33.69;16.50;93812.84;5018784;28;20049;-60
2021/05/20 09:48:06;;;;;;;1.65;0.68;;;;;;;34.10;16.63;93816.28;5030904;28;20058;-56
2021/05/20 09:50:44;;;;;;;5.20;0.70;;;;;;;33.63;15.96;93814.66;5017663;28;20057;-59
2021/05/20 09:53:16;;;;;;;1.63;0.50;;;;;;;33.53;16.18;93809.63;5028766;28;20479;-60
2021/05/20 09:55:50;;;;;;;1.75;0.65;;;;;;;33.00;17.20;93813.13;5037064;28;20053;-67
2021/05/20 09:58:18;;;;;;;3.90;0.50;;;;;;;33.48;16.76;93808.28;5036293;28;20333;-61
2021/05/20 10:00:46;;;;;;;0.98;0.50;;;;;;;33.37;17.16;93805.22;5037202;28;20341;-64
2021/05/20 10:03:15;;;;;;;0.93;0.40;;;;;;;33.90;15.75;93799.69;5027643;28;20450;-58
2021/05/20 10:06:00;;;;;;;3.15;0.47;;;;;;;33.22;16.33;93801.50;5018661;28;20046;-59
2021/05/20 10:08:32;;;;;;;1.20;0.50;;;;;;;33.66;16.64;93804.88;5030050;28;20056;-60
2021/05/20 10:11:04;;;;;;;1.17;0.55;;;;;;;33.34;16.17;93792.59;5036871;28;20486;-60
2021/05/20 10:13:32;;;;;;;2.03;0.60;;;;;;;33.55;16.48;93796.38;5036930;28;20048;-56
2021/05/20 10:16:00;;;;;;;1.23;0.50;;;;;;;33.70;15.88;93797.34;5035953;28;20483;-63
2021/05/20 10:18:28;;;;;;;1.10;0.57;;;;;;;33.73;16.43;93789.06;5056613;28;20056;-56
2021/05/20 10:21:01;;;;;;;0.90;0.55;;;;;;;33.18;16.63;93784.66;5024076;28;20058;-56
2021/05/20 10:23:29;;;;;;;0.80;0.55;;;;;;;34.38;16.19;93789.22;5027595;28;20052;-59
2021/05/20 10:25:57;;;;;;;1.13;0.60;;;;;;;34.63;15.29;93788.88;5032490;28;20049;-55
2021/05/20 10:28:25;;;;;;;1.00;0.60;;;;;;;34.26;15.90;93783.44;5035485;28;20060;-60
2021/05/20 10:30:56;;;;;;;0.93;0.60;;;;;;;34.30;16.13;93784.03;5019212;28;20388;-60
2021/05/20 10:33:28;;;;;;;0.88;0.63;;;;;;;33.90;16.15;93789.59;5036486;28;20044;-56
2021/05/20 10:35:58;;;;;;;1.67;0.85;;;;;;;34.26;15.50;93783.44;5019175;28;20056;-58
2021/05/20 10:38:29;;;;;;;1.48;0.90;;;;;;;33.77;16.34;93785.47;5036058;28;20045;-61
2021/05/20 10:41:27;;;;;;;1.65;0.80;;;;;;;33.40;15.77;93790.78;5018927;28;20060;-57
2021/05/20 10:44:07;;;;;;;1.35;0.77;;;;;;;33.35;16.06;93783.25;5018505;28;20053;-58
2021/05/20 10:46:56;;;;;;;2.40;0.90;;;;;;;33.93;15.98;93798.78;5025223;28;20466;-55
2021/05/20 10:49:45;;;;;;;4.07;1.27;;;;;;;33.72;16.12;93795.69;5055851;28;20333;-59
2021/05/20 10:52:41;;;;;;;2.25;0.95;;;;;;;33.73;15.75;93786.34;5056353;28;20060;-60
2021/05/20 10:55:11;;;;;;;1.98;0.95;;;;;;;33.83;15.23;93772.81;5016061;28;20060;-55
2021/05/20 10:57:54;;;;;;;2.80;0.98;;;;;;;34.01;16.37;93776.34;5032083;28;20564;-57
2021/05/20 11:00:38;;;;;;;1.10;0.70;;;;;;;33.36;16.73;93765.81;5036115;28;20057;-60
2021/05/20 11:03:07;;;;;;;0.95;0.70;;;;;;;33.83;15.80;93773.63;5035720;28;20384;-60
2021/05/20 11:05:40;;;;;;;1.40;0.80;;;;;;;34.10;16.23;93770.19;5035961;28;20049;-64
2021/05/20 11:08:31;;;;;;;1.25;0.90;;;;;;;34.35;15.57;93758.28;5035790;28;20046;-58
2021/05/20 11:11:01;;;;;;;1.40;1.00;;;;;;;34.55;14.52;93749.69;4983673;28;20048;-57
2021/05/20 11:13:39;;;;;;;1.63;1.02;;;;;;;34.93;15.66;93749.19;5024623;28;20046;-63
2021/05/20 11:16:32;;;;;;;2.38;1.08;;;;;;;34.41;16.12;93744.88;5043004;28;20056;-59
2021/05/20 11:19:22;;;;;;;2.15;1.05;;;;;;;34.04;16.31;93750.28;5037874;28;20052;-57
2021/05/20 11:21:58;;;;;;;1.98;1.13;;;;;;;34.53;15.68;93741.25;5055730;28;20052;-60
2021/05/20 11:24:28;;;;;;;2.50;1.02;;;;;;;34.43;15.90;93742.47;5055181;28;20049;-62
2021/05/20 11:26:57;;;;;;;1.25;1.08;;;;;;;34.74;15.62;93736.84;5051839;28;20049;-58
2021/05/20 11:29:26;;;;;;;1.70;0.95;;;;;;;34.98;15.62;93740.41;5035269;28;20056;-63
2021/05/20 11:31:59;;;;;;;1.15;0.90;;;;;;;34.88;15.41;93739.69;5031653;28;20057;-58
2021/05/20 11:37:24;;;;;;;1.60;0.93;;;;;;;33.94;15.61;93740.66;5028151;28;20464;-57
2021/05/20 11:39:51;;;;;;;1.80;0.98;;;;;;;34.39;15.16;93739.16;5035297;28;20368;-59
2021/05/20 11:42:27;;;;;;;1.42;0.98;;;;;;;34.78;15.31;93742.84;5017973;28;20041;-59
2021/05/20 11:44:55;;;;;;;1.63;0.90;;;;;;;34.59;15.61;93740.16;5035013;28;20060;-61
2021/05/20 11:47:23;;;;;;;2.55;0.90;;;;;;;35.23;14.63;93741.97;5052467;28;20060;-57
2021/05/20 11:49:51;;;;;;;1.45;0.80;;;;;;;34.73;15.32;93743.47;5055099;28;20049;-62
2021/05/20 11:52:19;;;;;;;1.63;0.90;;;;;;;34.54;14.94;93748.19;5055129;28;20468;-58